Terminal Aerodrome Forecast
Issued by NWS

Home | Current Version | Previous Version | Text Only | Print | Product List | Glossary On
Versions: 1 2 3 4 5 6 7 8 9 10 11 12 13 14 15
000
FTUS45 KRIW 241100
TAFBPI
TAF
KBPI 241122Z 2412/2512 33015G22KT P6SM VCSH SCT025 BKN040
      TEMPO 2412/2413 3SM -SN BKN018
     FM241600 34020G28KT P6SM SCT060
     FM250000 34009KT P6SM FEW060
     FM251000 VRB05KT P6SM SCT035 BKN060=

USA.gov is the U.S. government's official web portal to all federal, state and local government web resources and services.